Time;durP1;ratioP1;P1;durP2;ratioP2;P2;SDS_P1;SDS_P2;PMS_P1;PMS_P2;Temp;Humidity;BMP_temperature;BMP_pressure;BME280_temperature;BME280_humidity;BME280_pressure;Samples;Min_cycle;Max_cycle;Signal;HPM_P1;HPM_P2
2022/11/22 00:01:43;;;;;;;;;;;;;;;;;;4976153;28;19910;-30
2022/11/22 00:04:09;;;;;;;;;;;;;;;;;;4976288;28;19944;-25
2022/11/22 00:06:35;;;;;;;;;;;;;;;;;;4976088;28;20338;-28
2022/11/22 00:09:01;;;;;;;;;;;;;;;;;;4976087;28;20374;-25
2022/11/22 00:11:27;;;;;;;;;;;;;;;;;;4976021;28;20056;-26
2022/11/22 00:13:53;;;;;;;;;;;;;;;;;;4975663;28;19929;-25
2022/11/22 00:16:19;;;;;;;;;;;;;;;;;;4976261;28;19922;-29
2022/11/22 00:18:45;;;;;;;;;;;;;;;;;;4975918;28;19914;-26
2022/11/22 00:21:11;;;;;;;;;;;;;;;;;;4975969;28;19965;-28
2022/11/22 00:23:38;;;;;;;;;;;;;;;;;;4976211;28;20313;-30
2022/11/22 00:26:05;;;;;;;;;;;;;;;;;;4975947;28;19914;-26
2022/11/22 00:28:31;;;;;;;;;;;;;;;;;;4975814;28;19936;-26
2022/11/22 00:30:57;;;;;;;;;;;;;;;;;;4976105;28;19914;-25
2022/11/22 00:33:23;;;;;;;;;;;;;;;;;;4976027;28;19921;-24
2022/11/22 00:35:50;;;;;;;;;;;;;;;;;;4975657;28;19972;-30
2022/11/22 00:38:16;;;;;;;;;;;;;;;;;;4978223;28;20330;-25
2022/11/22 00:40:42;;;;;;;;;;;;;;;;;;4962589;28;19945;-26
2022/11/22 00:43:08;;;;;;;;;;;;;;;;;;4979892;28;19945;-26
2022/11/22 00:45:34;;;;;;;;;;;;;;;;;;4979969;28;19952;-28
2022/11/22 00:48:00;;;;;;;;;;;;;;;;;;4962551;28;19925;-25
2022/11/22 00:50:26;;;;;;;;;;;;;;;;;;4979528;28;19913;-28
2022/11/22 00:52:52;;;;;;;;;;;;;;;;;;4979448;28;19914;-27
2022/11/22 00:55:18;;;;;;;;;;;;;;;;;;4979678;28;19929;-23
2022/11/22 00:57:44;;;;;;;;;;;;;;;;;;4979678;28;19910;-24
2022/11/22 01:00:10;;;;;;;;;;;;;;;;;;4979637;28;19918;-26
2022/11/22 01:02:35;;;;;;;;;;;;;;;;;;4979563;28;20332;-29
2022/11/22 01:05:02;;;;;;;;;;;;;;;;;;4979492;28;19914;-25
2022/11/22 01:07:28;;;;;;;;;;;;;;;;;;4979990;28;20297;-28
2022/11/22 01:09:53;;;;;;;;;;;;;;;;;;4979181;28;20353;-28
2022/11/22 01:12:20;;;;;;;;;;;;;;;;;;4979047;28;19910;-25
2022/11/22 01:14:45;;;;;;;;;;;;;;;;;;4978855;28;19929;-27
2022/11/22 01:17:12;;;;;;;;;;;;;;;;;;4979058;28;19910;-28
2022/11/22 01:19:37;;;;;;;;;;;;;;;;;;4978964;28;19937;-27
2022/11/22 01:22:03;;;;;;;;;;;;;;;;;;4978945;28;19910;-23
2022/11/22 01:24:29;;;;;;;;;;;;;;;;;;4979157;28;19924;-28
2022/11/22 01:26:55;;;;;;;;;;;;;;;;;;4978968;28;19910;-28
2022/11/22 01:29:21;;;;;;;;;;;;;;;;;;4979173;28;19918;-28
2022/11/22 01:31:47;;;;;;;;;;;;;;;;;;4979113;28;19914;-25
2022/11/22 01:34:13;;;;;;;;;;;;;;;;;;4978682;28;20408;-27
2022/11/22 01:36:39;;;;;;;;;;;;;;;;;;4978710;28;20009;-27
2022/11/22 01:39:05;;;;;;;;;;;;;;;;;;4978670;28;19914;-26
2022/11/22 01:41:34;;;;;;;;;;;;;;;;;;4978995;28;19918;-26
2022/11/22 01:44:03;;;;;;;;;;;;;;;;;;4984400;28;19914;-28
2022/11/22 01:46:30;;;;;;;;;;;;;;;;;;4984559;28;20152;-27
2022/11/22 01:48:58;;;;;;;;;;;;;;;;;;4965812;28;19914;-28
2022/11/22 01:51:25;;;;;;;;;;;;;;;;;;4966905;28;19914;-26
2022/11/22 01:53:53;;;;;;;;;;;;;;;;;;4983833;28;19973;-24
2022/11/22 01:56:20;;;;;;;;;;;;;;;;;;4967213;28;19919;-29
2022/11/22 01:58:50;;;;;;;;;;;;;;;;;;4984314;28;19914;-28
2022/11/22 02:01:18;;;;;;;;;;;;;;;;;;4984410;28;19942;-29
2022/11/22 02:03:45;;;;;;;;;;;;;;;;;;4983794;28;19964;-27
2022/11/22 02:06:12;;;;;;;;;;;;;;;;;;4984635;28;19910;-25
2022/11/22 02:08:39;;;;;;;;;;;;;;;;;;4965835;28;19910;-24
2022/11/22 02:11:10;;;;;;;;;;;;;;;;;;4983850;28;19914;-28
2022/11/22 02:13:37;;;;;;;;;;;;;;;;;;4982444;28;19977;-26
2022/11/22 02:16:07;;;;;;;;;;;;;;;;;;4983316;28;19918;-29
2022/11/22 02:18:33;;;;;;;;;;;;;;;;;;4966176;28;20265;-26
2022/11/22 02:21:04;;;;;;;;;;;;;;;;;;4984222;28;20257;-32
2022/11/22 02:23:33;;;;;;;;;;;;;;;;;;4982907;28;20009;-31
2022/11/22 02:26:01;;;;;;;;;;;;;;;;;;4982863;28;19980;-30
2022/11/22 02:28:28;;;;;;;;;;;;;;;;;;4982476;28;19914;-33
2022/11/22 02:30:55;;;;;;;;;;;;;;;;;;4964769;28;20265;-28
2022/11/22 02:33:22;;;;;;;;;;;;;;;;;;4966135;28;19920;-30
2022/11/22 02:35:50;;;;;;;;;;;;;;;;;;4965856;28;20364;-27
2022/11/22 02:38:17;;;;;;;;;;;;;;;;;;4966024;28;19960;-29
2022/11/22 02:40:49;;;;;;;;;;;;;;;;;;4982951;28;19961;-24
2022/11/22 02:43:17;;;;;;;;;;;;;;;;;;4982580;28;20367;-29
2022/11/22 02:45:44;;;;;;;;;;;;;;;;;;4983090;28;20369;-25
2022/11/22 02:48:11;;;;;;;;;;;;;;;;;;4983035;28;20048;-24
2022/11/22 02:50:38;;;;;;;;;;;;;;;;;;4982808;28;19914;-31
2022/11/22 02:53:06;;;;;;;;;;;;;;;;;;4966118;28;19918;-25
2022/11/22 02:55:33;;;;;;;;;;;;;;;;;;4981802;28;19925;-27
2022/11/22 02:58:02;;;;;;;;;;;;;;;;;;4982528;28;20250;-27
2022/11/22 03:00:31;;;;;;;;;;;;;;;;;;4982638;28;19982;-30
2022/11/22 03:02:58;;;;;;;;;;;;;;;;;;4982111;28;20246;-31
2022/11/22 03:08:17;;;;;;;;;;;;;;;;;;4983520;28;19994;-30
2022/11/22 03:10:44;;;;;;;;;;;;;;;;;;4981873;28;20264;-28
2022/11/22 03:13:10;;;;;;;;;;;;;;;;;;4978729;28;19925;-24
2022/11/22 03:15:37;;;;;;;;;;;;;;;;;;4979064;28;20023;-29
2022/11/22 03:18:04;;;;;;;;;;;;;;;;;;4979175;28;19918;-32
2022/11/22 03:34:41;;;;;;;;;;;;;;;;;;4892797;26;19926;-23
2022/11/22 03:37:08;;;;;;;;;;;;;;;;;;4962717;29;20297;-23
2022/11/22 03:39:35;;;;;;;;;;;;;;;;;;4963387;29;19918;-23
2022/11/22 03:42:03;;;;;;;;;;;;;;;;;;4946115;29;19910;-23
2022/11/22 03:44:30;;;;;;;;;;;;;;;;;;4946288;29;19923;-23
2022/11/22 03:46:58;;;;;;;;;;;;;;;;;;4962216;29;19996;-23
2022/11/22 03:49:25;;;;;;;;;;;;;;;;;;4946352;29;19915;-23
2022/11/22 03:51:53;;;;;;;;;;;;;;;;;;4963274;29;20269;-23
2022/11/22 03:54:31;;;;;;;;;;;;;;;;;;4964814;29;20261;-23
2022/11/22 03:56:59;;;;;;;;;;;;;;;;;;4964707;29;19911;-24
2022/11/22 03:59:30;;;;;;;;;;;;;;;;;;4965102;29;19970;-23
2022/11/22 04:01:59;;;;;;;;;;;;;;;;;;4965074;29;19981;-24
2022/11/22 04:04:30;;;;;;;;;;;;;;;;;;4964717;29;19914;-23
2022/11/22 04:06:59;;;;;;;;;;;;;;;;;;4964564;29;19939;-23
2022/11/22 04:09:29;;;;;;;;;;;;;;;;;;4964723;29;19914;-23
2022/11/22 04:11:57;;;;;;;;;;;;;;;;;;4964600;29;19946;-23
2022/11/22 04:17:10;;;;;;;;;;;;;;;;;;4964178;29;19921;-23
2022/11/22 04:21:32;;;;;;;;;;;;;;;;;;4945607;29;19915;-23
2022/11/22 04:22:26;;;;;;;;;;;;;;;;;;4962408;29;20412;-23
2022/11/22 04:27:40;;;;;;;;;;;;;;;;;;4963892;29;20004;-23
2022/11/22 04:30:08;;;;;;;;;;;;;;;;;;4946680;29;19977;-23
2022/11/22 04:32:46;;;;;;;;;;;;;;;;;;4948562;28;19918;-23
2022/11/22 04:49:18;;;;;;;;;;;;;;;;;;4195981;26;19930;-23
2022/11/22 04:54:29;;;;;;;;;;;;;;;;;;4956341;29;20073;-23
2022/11/22 04:56:55;;;;;;;;;;;;;;;;;;4956251;28;19962;-23
2022/11/22 04:59:21;;;;;;;;;;;;;;;;;;4956230;29;20337;-24
2022/11/22 05:01:47;;;;;;;;;;;;;;;;;;4956355;29;19917;-24
2022/11/22 05:04:13;;;;;;;;;;;;;;;;;;4956127;29;20001;-24
2022/11/22 05:06:39;;;;;;;;;;;;;;;;;;4956128;29;19942;-25
2022/11/22 05:09:05;;;;;;;;;;;;;;;;;;4955961;28;19989;-24
2022/11/22 05:11:31;;;;;;;;;;;;;;;;;;4956279;29;19961;-24
2022/11/22 05:13:57;;;;;;;;;;;;;;;;;;4956186;29;19914;-25
2022/11/22 05:16:23;;;;;;;;;;;;;;;;;;4955984;29;19960;-24
2022/11/22 05:18:57;;;;;;;;;;;;;;;;;;4955825;28;19930;-24
2022/11/22 05:21:23;;;;;;;;;;;;;;;;;;4956144;29;19914;-24
2022/11/22 05:23:55;;;;;;;;;;;;;;;;;;4956173;28;19973;-25
2022/11/22 05:26:21;;;;;;;;;;;;;;;;;;4959551;29;19934;-24
2022/11/22 05:28:48;;;;;;;;;;;;;;;;;;4959191;28;19915;-24
2022/11/22 05:31:15;;;;;;;;;;;;;;;;;;4958990;29;19914;-24
2022/11/22 05:33:41;;;;;;;;;;;;;;;;;;4959196;29;19915;-24
2022/11/22 05:36:07;;;;;;;;;;;;;;;;;;4959518;29;19926;-24
2022/11/22 05:38:34;;;;;;;;;;;;;;;;;;4959178;28;19911;-24
2022/11/22 05:41:00;;;;;;;;;;;;;;;;;;4959653;29;19914;-24
2022/11/22 05:43:26;;;;;;;;;;;;;;;;;;4959268;29;19914;-23
2022/11/22 05:45:52;;;;;;;;;;;;;;;;;;4958998;29;20242;-24
2022/11/22 05:48:18;;;;;;;;;;;;;;;;;;4958939;28;19922;-24
2022/11/22 05:50:44;;;;;;;;;;;;;;;;;;4958784;29;20226;-24
2022/11/22 05:53:11;;;;;;;;;;;;;;;;;;4960402;29;19914;-24
2022/11/22 05:55:37;;;;;;;;;;;;;;;;;;4962671;29;19919;-24
2022/11/22 05:58:07;;;;;;;;;;;;;;;;;;4962473;28;19914;-24
2022/11/22 06:00:33;;;;;;;;;;;;;;;;;;4945726;29;19915;-25
2022/11/22 06:03:00;;;;;;;;;;;;;;;;;;4962694;29;19970;-25
2022/11/22 06:05:27;;;;;;;;;;;;;;;;;;4962708;29;19918;-25
2022/11/22 06:07:56;;;;;;;;;;;;;;;;;;4963174;28;19922;-25
2022/11/22 06:10:24;;;;;;;;;;;;;;;;;;4963216;29;19914;-25
2022/11/22 06:12:51;;;;;;;;;;;;;;;;;;4946400;29;19926;-24
2022/11/22 06:15:19;;;;;;;;;;;;;;;;;;4963984;29;20042;-24
2022/11/22 06:17:51;;;;;;;;;;;;;;;;;;4947388;28;19915;-23
2022/11/22 06:20:19;;;;;;;;;;;;;;;;;;4944919;28;20012;-24
2022/11/22 06:25:38;;;;;;;;;;;;;;;;;;4963036;29;20032;-22
2022/11/22 06:28:06;;;;;;;;;;;;;;;;;;4961994;28;19915;-24
2022/11/22 06:30:33;;;;;;;;;;;;;;;;;;4961924;29;20001;-24
2022/11/22 06:33:01;;;;;;;;;;;;;;;;;;4944054;29;19929;-24
2022/11/22 06:35:28;;;;;;;;;;;;;;;;;;4962030;28;20312;-24
2022/11/22 06:37:55;;;;;;;;;;;;;;;;;;4961777;28;19985;-24
2022/11/22 06:40:23;;;;;;;;;;;;;;;;;;4961318;29;19914;-24
2022/11/22 06:42:51;;;;;;;;;;;;;;;;;;4943654;28;19968;-24
2022/11/22 06:45:18;;;;;;;;;;;;;;;;;;4944243;29;19915;-24
2022/11/22 06:50:37;;;;;;;;;;;;;;;;;;4961383;29;19926;-24
2022/11/22 06:53:08;;;;;;;;;;;;;;;;;;4960033;29;20035;-24
2022/11/22 06:55:39;;;;;;;;;;;;;;;;;;4961641;29;19918;-24
2022/11/22 07:01:18;;;;;;;;;;;;;;;;;;4961989;29;19929;-24
2022/11/22 07:03:46;;;;;;;;;;;;;;;;;;4960464;28;19914;-24
2022/11/22 07:06:23;;;;;;;;;;;;;;;;;;4959952;29;19925;-24
2022/11/22 07:14:50;;;;;;;;;;;;;;;;;;4960498;29;20011;-24
2022/11/22 07:17:45;;;;;;;;;;;;;;;;;;4943835;28;20273;-23
2022/11/22 07:20:19;;;;;;;;;;;;;;;;;;4943689;28;20388;-23
2022/11/22 07:22:53;;;;;;;;;;;;;;;;;;4941939;29;19917;-24
2022/11/22 07:25:30;;;;;;;;;;;;;;;;;;4942634;28;19934;-23
2022/11/22 07:28:08;;;;;;;;;;;;;;;;;;4959392;28;20035;-23
2022/11/22 07:30:39;;;;;;;;;;;;;;;;;;4943879;28;19921;-23
2022/11/22 07:33:09;;;;;;;;;;;;;;;;;;4941828;29;20373;-24
2022/11/22 07:38:42;;;;;;;;;;;;;;;;;;4959717;28;19926;-24
2022/11/22 07:44:21;;;;;;;;;;;;;;;;;;4920185;29;19983;-23
2022/11/22 07:47:02;;;;;;;;;;;;;;;;;;4950224;28;19914;-24
2022/11/22 07:49:47;;;;;;;;;;;;;;;;;;4943482;28;19923;-24
2022/11/22 07:52:23;;;;;;;;;;;;;;;;;;4959919;28;20258;-24
2022/11/22 07:55:05;;;;;;;;;;;;;;;;;;4959995;29;19937;-23
2022/11/22 07:57:34;;;;;;;;;;;;;;;;;;4959974;28;19910;-23
2022/11/22 08:00:02;;;;;;;;;;;;;;;;;;4959282;29;20330;-23
2022/11/22 08:05:29;;;;;;;;;;;;;;;;;;4959256;29;19926;-23
2022/11/22 08:16:35;;;;;;;;;;;;;;;;;;4959392;29;19946;-24
2022/11/22 08:19:18;;;;;;;;;;;;;;;;;;4944006;28;19915;-25
2022/11/22 08:21:54;;;;;;;;;;;;;;;;;;4959573;28;19910;-22
2022/11/22 08:30:15;;;;;;;;;;;;;;;;;;4961016;29;19921;-24
2022/11/22 08:32:46;;;;;;;;;;;;;;;;;;5366111;23;20028;-23
2022/11/22 09:00:54;;;;;;;;;;;;;;;;;;4963560;29;19965;-23
2022/11/22 09:06:07;;;;;;;;;;;;;;;;;;4962070;29;19953;-23
2022/11/22 09:11:33;;;;;;;;;;;;;;;;;;4962313;29;20443;-23
2022/11/22 09:14:00;;;;;;;;;;;;;;;;;;4947543;28;19946;-24
2022/11/22 09:16:33;;;;;;;;;;;;;;;;;;4961878;29;19973;-25
2022/11/22 09:19:04;;;;;;;;;;;;;;;;;;4961210;29;19914;-25
2022/11/22 09:24:46;;;;;;;;;;;;;;;;;;4961728;29;19921;-24
2022/11/22 09:27:18;;;;;;;;;;;;;;;;;;4953408;29;19925;-24
2022/11/22 09:30:13;;;;;;;;;;;;;;;;;;4946210;28;19958;-24
2022/11/22 09:41:14;;;;;;;;;;;;;;;;;;4981546;28;19980;-23
2022/11/22 10:03:35;;;;;;;;;;;;;;;;;;5229425;23;20021;-24
2022/11/22 10:06:01;;;;;;;;;;;;;;;;;;4959910;28;19914;-25
2022/11/22 10:08:27;;;;;;;;;;;;;;;;;;4977062;28;20348;-24
2022/11/22 10:10:53;;;;;;;;;;;;;;;;;;4976445;28;20027;-23
2022/11/22 10:13:19;;;;;;;;;;;;;;;;;;4976904;28;20268;-24
2022/11/22 10:15:45;;;;;;;;;;;;;;;;;;4977114;28;19914;-24
2022/11/22 10:18:11;;;;;;;;;;;;;;;;;;4976826;28;19969;-24
2022/11/22 10:20:37;;;;;;;;;;;;;;;;;;4976977;28;19924;-24
2022/11/22 10:23:04;;;;;;;;;;;;;;;;;;4977207;28;19910;-23
2022/11/22 10:25:53;;;;;;;;;;;;;;;;;;4979110;28;19964;-24
2022/11/22 10:31:19;;;;;;;;;;;;;;;;;;4979853;28;19926;-24
2022/11/22 10:33:57;;;;;;;;;;;;;;;;;;4979187;28;19921;-24
2022/11/22 10:38:59;;;;;;;;;;;;;;;;;;5035510;23;20328;-24
2022/11/22 10:41:25;;;;;;;;;;;;;;;;;;4976756;28;19918;-23
2022/11/22 10:43:51;;;;;;;;;;;;;;;;;;4977183;28;19942;-24
2022/11/22 10:46:18;;;;;;;;;;;;;;;;;;4976684;28;19925;-24
2022/11/22 10:48:44;;;;;;;;;;;;;;;;;;4976555;28;19965;-24
2022/11/22 11:02:36;;;;;;;;;;;;;;;;;;4979300;28;20052;-25
2022/11/22 11:05:06;;;;;;;;;;;;;;;;;;4979220;28;19918;-25
2022/11/22 11:07:34;;;;;;;;;;;;;;;;;;4979095;28;19949;-23
2022/11/22 11:10:18;;;;;;;;;;;;;;;;;;4963197;28;19936;-23
2022/11/22 11:12:59;;;;;;;;;;;;;;;;;;4977921;28;19969;-24
2022/11/22 11:15:29;;;;;;;;;;;;;;;;;;4977474;28;19918;-24
2022/11/22 11:24:01;;;;;;;;;;;;;;;;;;4979260;28;19960;-24
2022/11/22 11:29:28;;;;;;;;;;;;;;;;;;4979362;28;19925;-24
2022/11/22 11:34:56;;;;;;;;;;;;;;;;;;4978528;28;19985;-24
2022/11/22 11:40:20;;;;;;;;;;;;;;;;;;4978390;28;20026;-24
2022/11/22 11:42:48;;;;;;;;;;;;;;;;;;4978220;28;19914;-24
2022/11/22 11:45:45;;;;;;;;;;;;;;;;;;4979037;28;19972;-25
2022/11/22 11:54:04;;;;;;;;;;;;;;;;;;4978632;28;19921;-24
2022/11/22 11:56:32;;;;;;;;;;;;;;;;;;4961288;28;20313;-24
2022/11/22 12:01:56;;;;;;;;;;;;;;;;;;4977418;28;20049;-24
2022/11/22 12:12:45;;;;;;;;;;;;;;;;;;5361065;23;21023;-24
2022/11/22 12:15:11;;;;;;;;;;;;;;;;;;4955733;29;19944;-24
2022/11/22 12:17:38;;;;;;;;;;;;;;;;;;4955771;29;20061;-25
2022/11/22 12:20:04;;;;;;;;;;;;;;;;;;4938758;29;19925;-24
2022/11/22 12:22:30;;;;;;;;;;;;;;;;;;4956279;29;19918;-26
2022/11/22 12:24:56;;;;;;;;;;;;;;;;;;4956353;29;19914;-24
2022/11/22 12:27:22;;;;;;;;;;;;;;;;;;4956623;29;19973;-25
2022/11/22 12:29:48;;;;;;;;;;;;;;;;;;4956582;29;19918;-24
2022/11/22 12:32:14;;;;;;;;;;;;;;;;;;4956185;29;19911;-25
2022/11/22 12:34:40;;;;;;;;;;;;;;;;;;4959243;28;19918;-24
2022/11/22 12:37:07;;;;;;;;;;;;;;;;;;4959920;29;19976;-24
2022/11/22 12:39:33;;;;;;;;;;;;;;;;;;4960264;29;19985;-25
2022/11/22 12:41:59;;;;;;;;;;;;;;;;;;4960261;29;20318;-24
2022/11/22 12:44:25;;;;;;;;;;;;;;;;;;4960232;29;19970;-24
2022/11/22 12:46:52;;;;;;;;;;;;;;;;;;4960102;29;19911;-24
2022/11/22 12:49:18;;;;;;;;;;;;;;;;;;4960077;29;20250;-24
2022/11/22 12:51:44;;;;;;;;;;;;;;;;;;4959646;29;19934;-24
2022/11/22 12:54:10;;;;;;;;;;;;;;;;;;4959926;29;19918;-25
2022/11/22 12:56:36;;;;;;;;;;;;;;;;;;4960127;29;19914;-24
2022/11/22 12:59:02;;;;;;;;;;;;;;;;;;4959899;29;19933;-24
2022/11/22 13:01:28;;;;;;;;;;;;;;;;;;4959766;29;19910;-24
2022/11/22 13:03:54;;;;;;;;;;;;;;;;;;4959850;29;19910;-24
2022/11/22 13:06:21;;;;;;;;;;;;;;;;;;4959678;29;19914;-24
2022/11/22 13:08:47;;;;;;;;;;;;;;;;;;4959694;29;19972;-24
2022/11/22 13:11:13;;;;;;;;;;;;;;;;;;4942494;29;19921;-24
2022/11/22 13:13:39;;;;;;;;;;;;;;;;;;4970098;28;20017;-24
2022/11/22 13:16:05;;;;;;;;;;;;;;;;;;4979047;28;20005;-24
2022/11/22 13:18:31;;;;;;;;;;;;;;;;;;4978974;28;20375;-24
2022/11/22 13:20:57;;;;;;;;;;;;;;;;;;4978676;28;20374;-24
2022/11/22 13:23:23;;;;;;;;;;;;;;;;;;4978654;28;19930;-25
2022/11/22 13:25:49;;;;;;;;;;;;;;;;;;4978792;28;20330;-25
2022/11/22 13:28:15;;;;;;;;;;;;;;;;;;4978675;28;19934;-24
2022/11/22 13:30:41;;;;;;;;;;;;;;;;;;4978343;28;20356;-25
2022/11/22 13:33:07;;;;;;;;;;;;;;;;;;4961461;28;19969;-23
2022/11/22 13:35:33;;;;;;;;;;;;;;;;;;4978773;28;19921;-24
2022/11/22 13:37:59;;;;;;;;;;;;;;;;;;4961494;28;20353;-24
2022/11/22 13:40:26;;;;;;;;;;;;;;;;;;4978357;28;19914;-24
2022/11/22 13:42:52;;;;;;;;;;;;;;;;;;4978149;28;20057;-24
2022/11/22 13:45:18;;;;;;;;;;;;;;;;;;4977315;28;20242;-26
2022/11/22 13:47:44;;;;;;;;;;;;;;;;;;4977735;28;19911;-24
2022/11/22 13:50:10;;;;;;;;;;;;;;;;;;4977965;28;19918;-24
2022/11/22 13:52:36;;;;;;;;;;;;;;;;;;4977953;28;19914;-24
2022/11/22 13:55:02;;;;;;;;;;;;;;;;;;4977907;28;19961;-24
2022/11/22 13:57:28;;;;;;;;;;;;;;;;;;4960814;28;20000;-24
2022/11/22 13:59:54;;;;;;;;;;;;;;;;;;4977769;28;19933;-24
2022/11/22 14:02:20;;;;;;;;;;;;;;;;;;4977742;28;19914;-24
2022/11/22 14:04:46;;;;;;;;;;;;;;;;;;4978215;28;19914;-24
2022/11/22 14:07:12;;;;;;;;;;;;;;;;;;4978022;28;19910;-24
2022/11/22 14:09:38;;;;;;;;;;;;;;;;;;4978062;28;19924;-24
2022/11/22 14:12:04;;;;;;;;;;;;;;;;;;4977908;28;19914;-25
2022/11/22 14:14:30;;;;;;;;;;;;;;;;;;4977649;28;19933;-24
2022/11/22 14:16:56;;;;;;;;;;;;;;;;;;4977789;28;20005;-24
2022/11/22 14:19:23;;;;;;;;;;;;;;;;;;4977666;28;19957;-24
2022/11/22 14:21:49;;;;;;;;;;;;;;;;;;4977498;28;19910;-24
2022/11/22 14:24:15;;;;;;;;;;;;;;;;;;4977824;28;19925;-24
2022/11/22 14:26:41;;;;;;;;;;;;;;;;;;4977822;28;19914;-24
2022/11/22 14:29:07;;;;;;;;;;;;;;;;;;4977616;28;19924;-24
2022/11/22 14:31:33;;;;;;;;;;;;;;;;;;4960274;28;19913;-24
2022/11/22 14:33:59;;;;;;;;;;;;;;;;;;4977487;28;20392;-25
2022/11/22 14:36:25;;;;;;;;;;;;;;;;;;4977407;28;19958;-25
2022/11/22 14:38:51;;;;;;;;;;;;;;;;;;4977581;28;19972;-25
2022/11/22 14:41:17;;;;;;;;;;;;;;;;;;4977302;28;19914;-23
2022/11/22 14:43:43;;;;;;;;;;;;;;;;;;4976900;28;20280;-24
2022/11/22 14:46:09;;;;;;;;;;;;;;;;;;4977559;28;19925;-24
2022/11/22 14:48:36;;;;;;;;;;;;;;;;;;4977319;28;19914;-24
2022/11/22 14:51:02;;;;;;;;;;;;;;;;;;4977149;28;20353;-24
2022/11/22 14:53:28;;;;;;;;;;;;;;;;;;4977212;28;20411;-23
2022/11/22 14:55:54;;;;;;;;;;;;;;;;;;4977096;28;19914;-24
2022/11/22 14:58:20;;;;;;;;;;;;;;;;;;4976867;28;20034;-24
2022/11/22 15:00:46;;;;;;;;;;;;;;;;;;4976933;28;20022;-24
2022/11/22 15:03:12;;;;;;;;;;;;;;;;;;4977247;28;19924;-23
2022/11/22 15:05:38;;;;;;;;;;;;;;;;;;4976957;28;20004;-23
2022/11/22 15:08:04;;;;;;;;;;;;;;;;;;4977196;28;19954;-24
2022/11/22 15:10:30;;;;;;;;;;;;;;;;;;4976782;28;19921;-23
2022/11/22 15:12:56;;;;;;;;;;;;;;;;;;4975948;28;19922;-23
2022/11/22 15:15:23;;;;;;;;;;;;;;;;;;4976595;28;20337;-24
2022/11/22 15:17:49;;;;;;;;;;;;;;;;;;4959360;28;19914;-24
2022/11/22 15:20:15;;;;;;;;;;;;;;;;;;4959451;28;19940;-24
2022/11/22 15:22:41;;;;;;;;;;;;;;;;;;4976667;28;19910;-23
2022/11/22 15:25:07;;;;;;;;;;;;;;;;;;4976677;28;19914;-23
2022/11/22 15:27:33;;;;;;;;;;;;;;;;;;4976831;28;19922;-24
2022/11/22 15:29:59;;;;;;;;;;;;;;;;;;4976467;28;20042;-24
2022/11/22 15:32:25;;;;;;;;;;;;;;;;;;4976656;28;20029;-22
2022/11/22 15:34:51;;;;;;;;;;;;;;;;;;4976452;28;19918;-24
2022/11/22 15:37:17;;;;;;;;;;;;;;;;;;4976476;28;19910;-24
2022/11/22 15:39:43;;;;;;;;;;;;;;;;;;4977144;28;19922;-24
2022/11/22 15:42:09;;;;;;;;;;;;;;;;;;4976806;28;19969;-23
2022/11/22 15:44:35;;;;;;;;;;;;;;;;;;4976531;28;19961;-24
2022/11/22 15:47:01;;;;;;;;;;;;;;;;;;4976250;28;19978;-23
2022/11/22 15:49:27;;;;;;;;;;;;;;;;;;4976076;28;19914;-24
2022/11/22 15:51:54;;;;;;;;;;;;;;;;;;4976106;28;19977;-23
2022/11/22 15:54:20;;;;;;;;;;;;;;;;;;4975916;28;19969;-23
2022/11/22 15:56:46;;;;;;;;;;;;;;;;;;4976254;28;19914;-24
2022/11/22 15:59:12;;;;;;;;;;;;;;;;;;4976312;28;19918;-24
2022/11/22 16:01:38;;;;;;;;;;;;;;;;;;4958857;28;20418;-24
2022/11/22 16:04:04;;;;;;;;;;;;;;;;;;4975817;28;20314;-23
2022/11/22 16:06:30;;;;;;;;;;;;;;;;;;4976253;28;20019;-23
2022/11/22 16:08:56;;;;;;;;;;;;;;;;;;4975778;28;19914;-24
2022/11/22 16:11:22;;;;;;;;;;;;;;;;;;4976001;28;19950;-23
2022/11/22 16:13:48;;;;;;;;;;;;;;;;;;4975314;28;19933;-24
2022/11/22 16:16:14;;;;;;;;;;;;;;;;;;4975205;28;19914;-24
2022/11/22 16:18:40;;;;;;;;;;;;;;;;;;4975201;28;19947;-24
2022/11/22 16:21:06;;;;;;;;;;;;;;;;;;4975089;28;20386;-23
2022/11/22 16:23:33;;;;;;;;;;;;;;;;;;4975059;28;19993;-23
2022/11/22 16:25:59;;;;;;;;;;;;;;;;;;4975082;28;20324;-24
2022/11/22 16:28:25;;;;;;;;;;;;;;;;;;4975179;28;19914;-23
2022/11/22 16:30:51;;;;;;;;;;;;;;;;;;4957775;28;19953;-23
2022/11/22 16:33:17;;;;;;;;;;;;;;;;;;4974760;28;19925;-23
2022/11/22 16:35:43;;;;;;;;;;;;;;;;;;4975017;28;20344;-23
2022/11/22 16:38:09;;;;;;;;;;;;;;;;;;4975329;28;19996;-24
2022/11/22 16:40:35;;;;;;;;;;;;;;;;;;4975564;28;19953;-24
2022/11/22 16:43:01;;;;;;;;;;;;;;;;;;4975507;28;19910;-24
2022/11/22 16:45:27;;;;;;;;;;;;;;;;;;4975512;28;19922;-24
2022/11/22 16:47:54;;;;;;;;;;;;;;;;;;4975625;28;19926;-24
2022/11/22 16:50:20;;;;;;;;;;;;;;;;;;4975891;28;19915;-24
2022/11/22 16:52:46;;;;;;;;;;;;;;;;;;4975285;28;20252;-23
2022/11/22 16:55:12;;;;;;;;;;;;;;;;;;4974571;28;20282;-23
2022/11/22 16:57:38;;;;;;;;;;;;;;;;;;4974953;28;20375;-23
2022/11/22 17:00:04;;;;;;;;;;;;;;;;;;4974677;28;20068;-23
2022/11/22 17:02:30;;;;;;;;;;;;;;;;;;4974817;28;19914;-23
2022/11/22 17:04:56;;;;;;;;;;;;;;;;;;4975949;28;19997;-23
2022/11/22 17:07:22;;;;;;;;;;;;;;;;;;4975408;28;19921;-23
2022/11/22 17:09:49;;;;;;;;;;;;;;;;;;4975390;28;19914;-23
2022/11/22 17:12:16;;;;;;;;;;;;;;;;;;4975633;28;19926;-24
2022/11/22 17:14:42;;;;;;;;;;;;;;;;;;4975856;28;20350;-24
2022/11/22 17:17:08;;;;;;;;;;;;;;;;;;4975491;28;19911;-23
2022/11/22 17:19:34;;;;;;;;;;;;;;;;;;4975482;28;19914;-24
2022/11/22 17:22:00;;;;;;;;;;;;;;;;;;4978424;28;20280;-23
2022/11/22 17:24:26;;;;;;;;;;;;;;;;;;4978824;28;20388;-24
2022/11/22 17:26:52;;;;;;;;;;;;;;;;;;4979041;28;19918;-23
2022/11/22 17:29:18;;;;;;;;;;;;;;;;;;4978836;28;19992;-23
2022/11/22 17:31:44;;;;;;;;;;;;;;;;;;4978991;28;20325;-23
2022/11/22 17:34:10;;;;;;;;;;;;;;;;;;4978700;28;20299;-24
2022/11/22 17:36:36;;;;;;;;;;;;;;;;;;4978814;28;19945;-26
2022/11/22 17:39:02;;;;;;;;;;;;;;;;;;4978502;28;19958;-23
2022/11/22 17:41:29;;;;;;;;;;;;;;;;;;4978308;28;19937;-24
2022/11/22 17:43:55;;;;;;;;;;;;;;;;;;4977950;28;19914;-24
2022/11/22 17:46:21;;;;;;;;;;;;;;;;;;4978061;28;19910;-24
2022/11/22 17:48:47;;;;;;;;;;;;;;;;;;4978412;28;20004;-23
2022/11/22 17:51:13;;;;;;;;;;;;;;;;;;4978110;28;19974;-23
2022/11/22 17:53:39;;;;;;;;;;;;;;;;;;4978017;28;19914;-24
2022/11/22 17:56:05;;;;;;;;;;;;;;;;;;4977985;28;19925;-24
2022/11/22 17:58:31;;;;;;;;;;;;;;;;;;4978024;28;19915;-24
2022/11/22 18:00:57;;;;;;;;;;;;;;;;;;4978633;28;19925;-23
2022/11/22 18:03:23;;;;;;;;;;;;;;;;;;4977926;28;19988;-24
2022/11/22 18:05:49;;;;;;;;;;;;;;;;;;4978118;28;19945;-23
2022/11/22 18:08:15;;;;;;;;;;;;;;;;;;4977724;28;19914;-24
2022/11/22 18:10:41;;;;;;;;;;;;;;;;;;4977583;28;19914;-24
2022/11/22 18:13:07;;;;;;;;;;;;;;;;;;4977533;28;19926;-24
2022/11/22 18:15:33;;;;;;;;;;;;;;;;;;4960868;28;20344;-24
2022/11/22 18:17:59;;;;;;;;;;;;;;;;;;4978131;28;19918;-24
2022/11/22 18:20:25;;;;;;;;;;;;;;;;;;4977778;28;19921;-24
2022/11/22 18:22:51;;;;;;;;;;;;;;;;;;4977678;28;19930;-24
2022/11/22 18:25:17;;;;;;;;;;;;;;;;;;4960543;28;20238;-24
2022/11/22 18:27:43;;;;;;;;;;;;;;;;;;4977594;28;19917;-24
2022/11/22 18:30:09;;;;;;;;;;;;;;;;;;4960163;28;19915;-24
2022/11/22 18:32:35;;;;;;;;;;;;;;;;;;4976873;28;19910;-24
2022/11/22 18:35:01;;;;;;;;;;;;;;;;;;4977087;28;19929;-24
2022/11/22 18:37:27;;;;;;;;;;;;;;;;;;4977483;28;19914;-24
2022/11/22 18:39:53;;;;;;;;;;;;;;;;;;4977220;28;19941;-24
2022/11/22 18:42:22;;;;;;;;;;;;;;;;;;4976859;28;20357;-24
2022/11/22 18:44:48;;;;;;;;;;;;;;;;;;4976575;28;19946;-24
2022/11/22 18:47:14;;;;;;;;;;;;;;;;;;4959165;28;19922;-24
2022/11/22 18:49:40;;;;;;;;;;;;;;;;;;4976301;28;19929;-25
2022/11/22 18:52:06;;;;;;;;;;;;;;;;;;4959117;28;19918;-24
2022/11/22 18:54:32;;;;;;;;;;;;;;;;;;4976287;28;19925;-24
2022/11/22 18:56:58;;;;;;;;;;;;;;;;;;4959053;28;19910;-24
2022/11/22 18:59:24;;;;;;;;;;;;;;;;;;4958930;28;19928;-24
2022/11/22 19:01:50;;;;;;;;;;;;;;;;;;4975994;28;20000;-24
2022/11/22 19:04:16;;;;;;;;;;;;;;;;;;4976151;28;19972;-24
2022/11/22 19:06:42;;;;;;;;;;;;;;;;;;4975997;28;19910;-24
2022/11/22 19:09:08;;;;;;;;;;;;;;;;;;4975913;28;19942;-24
2022/11/22 19:11:34;;;;;;;;;;;;;;;;;;4975910;28;19914;-24
2022/11/22 19:14:00;;;;;;;;;;;;;;;;;;4975662;28;19922;-24
2022/11/22 19:16:29;;;;;;;;;;;;;;;;;;4975833;28;19921;-24
2022/11/22 19:18:55;;;;;;;;;;;;;;;;;;4975617;28;19933;-24
2022/11/22 19:21:21;;;;;;;;;;;;;;;;;;4976295;28;19910;-24
2022/11/22 19:23:48;;;;;;;;;;;;;;;;;;4959086;28;19914;-24
2022/11/22 19:26:14;;;;;;;;;;;;;;;;;;4976251;28;20021;-24
2022/11/22 19:28:40;;;;;;;;;;;;;;;;;;4976802;28;20463;-24
2022/11/22 19:31:06;;;;;;;;;;;;;;;;;;4976286;28;19953;-24
2022/11/22 19:33:32;;;;;;;;;;;;;;;;;;4976451;28;20250;-23
2022/11/22 19:35:58;;;;;;;;;;;;;;;;;;4976079;28;19914;-23
2022/11/22 19:38:24;;;;;;;;;;;;;;;;;;4976533;28;19964;-23
2022/11/22 19:40:50;;;;;;;;;;;;;;;;;;4975996;28;20009;-24
2022/11/22 19:43:17;;;;;;;;;;;;;;;;;;4975630;28;19914;-24
2022/11/22 19:45:43;;;;;;;;;;;;;;;;;;4976189;28;19910;-24
2022/11/22 19:48:09;;;;;;;;;;;;;;;;;;4976240;28;20009;-24
2022/11/22 19:50:34;;;;;;;;;;;;;;;;;;4976052;28;19914;-24
2022/11/22 19:53:00;;;;;;;;;;;;;;;;;;4975740;28;20327;-24
2022/11/22 19:55:27;;;;;;;;;;;;;;;;;;4975679;28;20013;-24
2022/11/22 19:57:53;;;;;;;;;;;;;;;;;;4975873;28;20293;-25